Time;durP1;ratioP1;P1;durP2;ratioP2;P2;SDS_P1;SDS_P2;PMS_P1;PMS_P2;Temp;Humidity;BMP_temperature;BMP_pressure;BME280_temperature;BME280_humidity;BME280_pressure;Samples;Min_cycle;Max_cycle;Signal;HPM_P1;HPM_P2
2022/02/21 00:00:23;;;;;;;84.22;54.25;;;11.00;90.10;;;;;;5011385;28;20037;-74
2022/02/21 00:02:52;;;;;;;87.38;56.53;;;10.90;90.10;;;;;;5013799;28;20026;-74
2022/02/21 00:05:18;;;;;;;85.05;55.67;;;10.90;90.10;;;;;;5013495;28;20029;-74
2022/02/21 00:07:44;;;;;;;84.40;54.42;;;10.90;90.00;;;;;;5013445;28;20596;-74
2022/02/21 00:10:11;;;;;;;68.78;44.45;;;10.90;90.10;;;;;;5014407;28;20037;-74
2022/02/21 00:12:38;;;;;;;66.53;43.97;;;10.90;90.00;;;;;;5011829;28;20403;-74
2022/02/21 00:15:04;;;;;;;70.00;46.30;;;10.90;90.00;;;;;;5014579;28;20141;-74
2022/02/21 00:17:30;;;;;;;59.33;39.78;;;11.00;90.00;;;;;;5009733;28;20033;-74
2022/02/21 00:19:55;;;;;;;51.55;35.75;;;10.90;89.90;;;;;;5028217;28;20548;-74
2022/02/21 00:22:21;;;;;;;60.60;39.33;;;10.90;89.80;;;;;;5014244;28;20029;-73
2022/02/21 00:24:46;;;;;;;49.80;34.10;;;10.90;89.70;;;;;;5012811;28;20389;-74
2022/02/21 00:27:12;;;;;;;53.25;38.30;;;10.90;89.60;;;;;;5013254;28;20022;-74
2022/02/21 00:29:37;;;;;;;48.97;32.55;;;10.90;89.60;;;;;;5013895;28;20038;-74
2022/02/21 00:32:04;;;;;;;48.45;32.92;;;10.90;89.70;;;;;;5012895;28;20025;-74
2022/02/21 00:34:29;;;;;;;52.88;35.15;;;10.90;89.50;;;;;;5009901;28;20030;-73
2022/02/21 00:36:55;;;;;;;39.97;28.35;;;10.90;89.60;;;;;;5012611;28;20462;-74
2022/02/21 00:39:20;;;;;;;41.70;28.70;;;10.90;89.50;;;;;;5027761;28;20014;-74
2022/02/21 00:41:46;;;;;;;41.55;27.92;;;10.90;89.50;;;;;;5013703;28;20018;-74
2022/02/21 00:44:11;;;;;;;38.42;26.90;;;10.90;89.30;;;;;;5011640;28;20018;-74
2022/02/21 00:46:37;;;;;;;37.42;25.42;;;10.90;89.20;;;;;;5010648;28;20112;-74
2022/02/21 00:49:05;;;;;;;35.78;23.67;;;10.90;89.20;;;;;;5013446;28;20042;-74
2022/02/21 00:51:30;;;;;;;36.05;25.33;;;10.90;89.20;;;;;;5014226;28;20026;-75
2022/02/21 00:53:56;;;;;;;35.67;22.98;;;10.90;89.10;;;;;;5012917;28;20120;-74
2022/02/21 00:56:21;;;;;;;31.48;21.30;;;10.90;89.00;;;;;;5012704;28;20368;-75
2022/02/21 00:58:47;;;;;;;28.98;20.38;;;10.90;89.00;;;;;;5013021;28;20062;-74
2022/02/21 01:01:12;;;;;;;27.60;19.60;;;10.90;89.00;;;;;;5013934;28;20022;-75
2022/02/21 01:03:38;;;;;;;26.98;18.45;;;10.90;89.00;;;;;;5013907;28;20045;-74
2022/02/21 01:06:04;;;;;;;28.13;19.15;;;10.90;89.00;;;;;;5012588;28;20089;-74
2022/02/21 01:08:29;;;;;;;27.20;18.38;;;10.90;88.90;;;;;;5012326;28;20240;-73
2022/02/21 01:10:55;;;;;;;27.65;18.13;;;10.90;88.90;;;;;;5013766;28;20030;-74
2022/02/21 01:13:20;;;;;;;23.20;16.60;;;10.90;88.90;;;;;;5012492;28;20038;-75
2022/02/21 01:15:46;;;;;;;26.30;16.70;;;10.80;88.70;;;;;;5013694;28;20036;-76
2022/02/21 01:18:12;;;;;;;22.98;15.63;;;10.80;88.70;;;;;;5012341;28;20033;-75
2022/02/21 01:20:37;;;;;;;23.63;15.95;;;10.80;88.50;;;;;;5012482;28;20065;-75
2022/02/21 01:23:03;;;;;;;21.48;15.10;;;10.80;88.60;;;;;;5012124;28;20490;-74
2022/02/21 01:25:29;;;;;;;21.90;14.65;;;10.80;88.50;;;;;;5012273;28;20030;-75
2022/02/21 01:27:54;;;;;;;21.02;14.48;;;10.80;88.40;;;;;;5012255;28;20083;-75
2022/02/21 01:30:20;;;;;;;22.05;14.38;;;10.80;88.40;;;;;;5008798;28;20121;-74
2022/02/21 01:32:45;;;;;;;19.85;13.55;;;10.80;88.40;;;;;;5009298;28;20506;-75
2022/02/21 01:35:11;;;;;;;21.08;12.32;;;10.80;88.40;;;;;;5013284;28;20030;-74
2022/02/21 01:37:37;;;;;;;16.80;11.65;;;10.80;88.30;;;;;;5010906;28;20019;-74
2022/02/21 01:40:07;;;;;;;18.95;12.63;;;10.80;88.20;;;;;;5008530;28;20508;-74
2022/02/21 01:42:35;;;;;;;18.40;11.38;;;10.80;88.20;;;;;;5003300;28;20018;-75
2022/02/21 01:45:02;;;;;;;16.75;10.80;;;10.80;88.10;;;;;;5008907;28;20023;-74
2022/02/21 01:47:27;;;;;;;18.50;10.77;;;10.80;88.10;;;;;;5009652;28;20030;-74
2022/02/21 01:49:53;;;;;;;17.58;10.05;;;10.80;88.00;;;;;;5013037;28;20091;-74
2022/02/21 01:52:19;;;;;;;15.43;10.15;;;10.80;87.90;;;;;;5013164;28;20037;-74
2022/02/21 01:54:45;;;;;;;17.02;10.13;;;10.80;87.90;;;;;;5008327;28;20053;-75
2022/02/21 01:57:11;;;;;;;14.15;8.55;;;10.80;87.90;;;;;;4992202;28;20030;-74
2022/02/21 01:59:40;;;;;;;13.43;7.95;;;10.80;87.90;;;;;;5025467;28;20541;-74
2022/02/21 02:02:06;;;;;;;13.25;8.05;;;10.80;87.70;;;;;;5011540;28;20026;-74
2022/02/21 02:04:32;;;;;;;14.85;8.30;;;10.80;87.70;;;;;;5011403;28;20514;-74
2022/02/21 02:07:00;;;;;;;13.43;8.00;;;10.80;87.60;;;;;;5011632;28;20038;-74
2022/02/21 02:09:26;;;;;;;15.05;7.65;;;10.80;87.50;;;;;;5008144;28;20403;-75
2022/02/21 02:11:52;;;;;;;12.88;7.07;;;10.80;87.50;;;;;;4993376;28;20033;-74
2022/02/21 02:14:30;;;;;;;11.20;6.15;;;10.80;87.50;;;;;;5008359;28;20117;-75
2022/02/21 02:17:00;;;;;;;12.18;6.13;;;10.80;87.30;;;;;;5004706;28;20459;-75
2022/02/21 02:19:26;;;;;;;11.95;6.28;;;10.80;87.40;;;;;;5012625;28;20595;-75
2022/02/21 02:21:55;;;;;;;13.80;6.97;;;10.80;87.20;;;;;;5008184;28;20019;-75
2022/02/21 02:24:22;;;;;;;13.55;6.47;;;10.70;87.20;;;;;;4998316;28;20080;-74
2022/02/21 02:26:52;;;;;;;11.30;6.22;;;10.80;87.00;;;;;;5027761;28;20034;-74
2022/02/21 02:29:17;;;;;;;10.50;5.80;;;10.70;87.00;;;;;;5008062;28;20391;-75
2022/02/21 02:31:43;;;;;;;10.30;5.28;;;10.70;87.00;;;;;;5009095;28;20101;-75
2022/02/21 02:34:08;;;;;;;10.65;5.63;;;10.70;86.80;;;;;;5010489;28;20018;-75
2022/02/21 02:36:34;;;;;;;9.93;4.18;;;10.70;86.90;;;;;;5012150;28;20076;-74
2022/02/21 02:38:59;;;;;;;11.10;4.88;;;10.70;86.80;;;;;;5011294;28;20080;-75
2022/02/21 02:41:25;;;;;;;10.13;4.72;;;10.70;86.80;;;;;;5011239;28;20030;-75
2022/02/21 02:43:50;;;;;;;9.55;4.32;;;10.70;86.60;;;;;;5010954;28;20022;-74
2022/02/21 02:46:16;;;;;;;10.07;4.22;;;10.70;86.50;;;;;;5012385;28;20395;-74
2022/02/21 02:48:41;;;;;;;8.77;4.03;;;10.70;86.60;;;;;;5008000;28;20030;-75
2022/02/21 02:51:07;;;;;;;10.75;4.07;;;10.70;86.50;;;;;;5014828;28;20509;-74
2022/02/21 02:53:34;;;;;;;9.48;4.25;;;10.70;86.50;;;;;;5010419;28;20033;-74
2022/02/21 02:56:00;;;;;;;8.98;3.80;;;10.70;86.50;;;;;;5010857;28;20112;-75
2022/02/21 02:58:26;;;;;;;8.80;3.83;;;10.70;86.30;;;;;;5011913;28;20108;-74
2022/02/21 03:00:51;;;;;;;8.73;3.63;;;10.70;86.40;;;;;;5012058;28;20093;-74
2022/02/21 03:03:17;;;;;;;10.32;3.70;;;10.70;86.30;;;;;;5012287;28;20575;-74
2022/02/21 03:05:43;;;;;;;8.57;3.30;;;10.70;86.20;;;;;;5010607;28;20066;-74
2022/02/21 03:08:08;;;;;;;9.98;3.90;;;10.70;86.20;;;;;;5012277;28;20037;-74
2022/02/21 03:10:34;;;;;;;10.95;3.67;;;10.70;86.20;;;;;;5012103;28;20399;-74
2022/02/21 03:13:00;;;;;;;8.70;3.05;;;10.70;86.20;;;;;;5010884;28;20061;-74
2022/02/21 03:15:25;;;;;;;8.02;3.08;;;10.70;86.00;;;;;;5007323;28;20381;-74
2022/02/21 03:17:52;;;;;;;8.85;3.35;;;10.70;86.00;;;;;;5010047;28;20113;-74
2022/02/21 03:20:17;;;;;;;10.65;3.35;;;10.70;86.10;;;;;;5007631;28;20027;-74
2022/02/21 03:22:44;;;;;;;10.25;3.20;;;10.70;86.00;;;;;;4992372;28;20023;-74
2022/02/21 03:25:12;;;;;;;10.55;3.40;;;10.70;85.90;;;;;;5000356;28;20113;-74
2022/02/21 03:27:44;;;;;;;9.30;3.13;;;10.70;85.90;;;;;;5010890;28;20026;-75
2022/02/21 03:30:10;;;;;;;;;;;10.70;85.90;;;;;;5010811;28;20492;-75
2022/02/21 03:32:36;;;;;;;8.98;2.92;;;10.70;85.70;;;;;;5007270;28;19917;-73
2022/02/21 03:35:02;;;;;;;8.27;2.53;;;10.70;85.70;;;;;;5001825;28;20026;-75
2022/02/21 03:37:27;;;;;;;9.30;2.75;;;10.70;85.80;;;;;;5021992;28;20033;-75
2022/02/21 03:39:53;;;;;;;9.30;2.97;;;10.60;85.40;;;;;;5009875;28;20022;-75
2022/02/21 03:42:18;;;;;;;9.50;2.95;;;10.70;85.50;;;;;;5009381;28;20033;-74
2022/02/21 03:44:44;;;;;;;10.60;3.05;;;10.70;85.40;;;;;;5007273;28;20026;-74
2022/02/21 03:47:09;;;;;;;9.00;2.63;;;10.60;85.30;;;;;;5013705;28;20563;-74
2022/02/21 03:49:35;;;;;;;9.18;2.42;;;10.70;85.40;;;;;;5015160;28;20025;-74
2022/02/21 03:52:02;;;;;;;10.00;2.75;;;10.60;85.20;;;;;;5013949;28;20121;-74
2022/02/21 03:54:27;;;;;;;8.60;2.58;;;10.70;85.20;;;;;;5024590;28;20073;-74
2022/02/21 03:56:53;;;;;;;8.55;2.47;;;10.70;85.40;;;;;;5015128;28;20054;-75
2022/02/21 03:59:18;;;;;;;11.05;2.30;;;10.70;85.30;;;;;;5009804;28;20073;-75
2022/02/21 04:01:43;;;;;;;8.35;2.60;;;10.70;85.20;;;;;;5013843;28;20112;-75
2022/02/21 04:04:09;;;;;;;8.63;2.22;;;10.70;85.10;;;;;;5015033;28;20101;-74
2022/02/21 04:06:35;;;;;;;9.40;2.40;;;10.60;85.10;;;;;;5014748;28;20533;-74
2022/02/21 04:09:00;;;;;;;8.35;2.38;;;10.70;85.10;;;;;;5014779;28;20034;-75
2022/02/21 04:11:26;;;;;;;8.18;2.47;;;10.60;85.00;;;;;;5014860;28;20110;-74
2022/02/21 04:13:51;;;;;;;7.10;2.42;;;10.70;85.00;;;;;;5011262;28;20022;-74
2022/02/21 04:16:17;;;;;;;7.32;2.28;;;10.70;85.00;;;;;;5014680;28;20598;-74
2022/02/21 04:18:42;;;;;;;7.88;2.33;;;10.60;84.90;;;;;;5013875;28;20034;-74
2022/02/21 04:21:08;;;;;;;6.35;1.90;;;10.60;84.80;;;;;;5015112;28;20022;-74
2022/02/21 04:23:33;;;;;;;7.00;2.35;;;10.60;84.70;;;;;;5014836;28;20021;-74
2022/02/21 04:25:59;;;;;;;6.20;1.90;;;10.60;84.70;;;;;;5014229;28;20072;-74
2022/02/21 04:28:24;;;;;;;7.45;2.20;;;10.60;84.70;;;;;;5014691;28;20048;-74
2022/02/21 04:30:50;;;;;;;10.60;2.70;;;10.60;84.50;;;;;;5013102;28;20077;-74
2022/02/21 04:33:15;;;;;;;5.63;1.70;;;10.60;84.50;;;;;;5009970;28;20496;-74
2022/02/21 04:35:41;;;;;;;6.45;1.92;;;10.60;84.50;;;;;;5011228;28;20170;-74
2022/02/21 04:38:07;;;;;;;8.18;2.00;;;10.60;84.40;;;;;;5014871;28;20045;-75
2022/02/21 04:40:32;;;;;;;5.72;1.73;;;10.60;84.40;;;;;;5014233;28;20018;-75
2022/02/21 04:42:58;;;;;;;6.75;1.60;;;10.60;84.30;;;;;;5013250;28;20407;-74
2022/02/21 04:45:24;;;;;;;5.82;2.00;;;10.60;84.20;;;;;;5012696;28;20053;-74
2022/02/21 04:47:50;;;;;;;9.57;2.45;;;10.60;84.20;;;;;;5012765;28;20570;-74
2022/02/21 04:50:17;;;;;;;5.65;1.45;;;10.60;84.20;;;;;;5012162;28;20025;-74
2022/02/21 04:52:43;;;;;;;9.38;2.00;;;10.70;84.20;;;;;;5013964;28;20391;-74
2022/02/21 04:55:11;;;;;;;9.90;2.47;;;10.60;84.00;;;;;;5014093;28;20026;-74
2022/02/21 04:57:37;;;;;;;7.15;1.75;;;10.60;84.00;;;;;;5011905;28;20403;-74
2022/02/21 05:00:05;;;;;;;6.57;1.65;;;10.60;84.00;;;;;;5009184;28;20077;-73
2022/02/21 05:02:31;;;;;;;6.82;1.80;;;10.60;83.90;;;;;;5012695;28;20037;-75
2022/02/21 05:04:57;;;;;;;5.68;1.63;;;10.60;83.70;;;;;;5014021;28;20133;-74
2022/02/21 05:07:22;;;;;;;10.38;1.92;;;10.60;83.70;;;;;;5013330;28;20034;-74
2022/02/21 05:09:47;;;;;;;7.00;2.00;;;10.60;83.70;;;;;;5013538;28;20045;-74
2022/02/21 05:12:13;;;;;;;12.02;1.90;;;10.60;83.60;;;;;;5008906;28;20030;-74
2022/02/21 05:14:39;;;;;;;8.98;1.63;;;10.50;83.30;;;;;;5027692;28;20089;-75
2022/02/21 05:17:05;;;;;;;6.43;1.40;;;10.60;83.50;;;;;;5013458;28;20559;-74
2022/02/21 05:19:31;;;;;;;15.30;2.13;;;10.60;83.50;;;;;;5012021;28;20160;-74
2022/02/21 05:21:57;;;;;;;23.25;2.75;;;10.60;83.40;;;;;;5012034;28;20490;-74
2022/02/21 05:24:23;;;;;;;15.45;2.25;;;10.60;83.40;;;;;;5013415;28;20026;-74
2022/02/21 05:26:48;;;;;;;9.10;1.60;;;10.60;83.80;;;;;;5008621;28;20480;-74
2022/02/21 05:29:14;;;;;;;9.55;1.70;;;10.60;83.30;;;;;;5026786;28;20487;-74
2022/02/21 05:31:40;;;;;;;10.43;2.00;;;10.60;83.40;;;;;;5012953;28;20109;-75
2022/02/21 05:34:05;;;;;;;8.60;1.88;;;10.70;83.30;;;;;;5010904;28;20084;-75
2022/02/21 05:36:31;;;;;;;9.38;1.75;;;10.60;83.20;;;;;;5007105;28;20530;-76
2022/02/21 05:38:56;;;;;;;6.35;1.30;;;10.60;83.20;;;;;;5007192;28;20036;-74
2022/02/21 05:41:22;;;;;;;8.63;1.80;;;10.60;83.10;;;;;;5005085;28;20718;-75
2022/02/21 05:43:47;;;;;;;5.53;1.48;;;10.60;83.30;;;;;;5007460;28;20076;-75
2022/02/21 05:46:13;;;;;;;4.05;1.27;;;10.60;83.20;;;;;;5020625;28;20451;-74
2022/02/21 05:48:39;;;;;;;9.05;1.90;;;10.60;83.10;;;;;;5007125;28;20033;-75
2022/02/21 05:51:05;;;;;;;7.95;1.55;;;10.60;83.10;;;;;;5012689;28;20033;-74
2022/02/21 05:53:30;;;;;;;7.25;1.50;;;10.60;83.10;;;;;;5006731;28;20038;-74
2022/02/21 05:55:56;;;;;;;9.30;2.08;;;10.50;82.90;;;;;;5008066;28;20380;-74
2022/02/21 05:58:21;;;;;;;6.70;1.65;;;10.60;83.00;;;;;;5007782;28;20472;-74
2022/02/21 06:00:49;;;;;;;6.35;1.50;;;10.60;82.80;;;;;;5008059;28;20029;-76
2022/02/21 06:03:15;;;;;;;6.38;1.60;;;10.60;82.90;;;;;;5007594;28;20036;-74
2022/02/21 06:05:43;;;;;;;5.38;1.30;;;10.60;82.80;;;;;;5006851;28;20044;-74
2022/02/21 06:08:09;;;;;;;8.13;1.60;;;10.60;82.90;;;;;;5005832;28;20104;-77
2022/02/21 06:10:34;;;;;;;6.93;1.70;;;10.60;82.90;;;;;;5023143;28;20376;-75
2022/02/21 06:13:00;;;;;;;8.07;1.70;;;10.60;82.70;;;;;;5009448;28;20060;-75
2022/02/21 06:15:25;;;;;;;10.48;1.98;;;10.60;81.30;;;;;;5005837;28;20034;-76
2022/02/21 06:17:51;;;;;;;23.30;2.45;;;10.60;79.70;;;;;;5000274;28;20483;-75
2022/02/21 06:20:16;;;;;;;29.63;2.58;;;10.50;79.80;;;;;;5006650;28;20026;-77
2022/02/21 06:22:42;;;;;;;19.10;2.55;;;10.60;80.20;;;;;;5010864;28;20399;-75
2022/02/21 06:25:08;;;;;;;14.77;2.17;;;10.50;80.60;;;;;;5010545;28;20472;-76
2022/02/21 06:27:33;;;;;;;11.45;1.92;;;10.50;80.70;;;;;;5009592;28;20029;-75
2022/02/21 06:29:59;;;;;;;11.55;1.92;;;10.60;81.20;;;;;;5007673;28;20452;-75
2022/02/21 06:32:25;;;;;;;11.98;1.88;;;10.50;81.20;;;;;;5007016;28;20075;-75
2022/02/21 06:34:51;;;;;;;12.35;1.95;;;10.60;81.30;;;;;;5008962;28;20386;-75
2022/02/21 06:37:18;;;;;;;10.55;2.20;;;10.50;81.40;;;;;;5005377;28;20034;-76
2022/02/21 06:39:44;;;;;;;10.90;1.73;;;10.50;81.60;;;;;;4989142;28;20380;-76
2022/02/21 06:42:10;;;;;;;7.53;1.33;;;10.60;81.40;;;;;;5004842;28;20057;-76
2022/02/21 06:44:35;;;;;;;6.20;1.50;;;10.50;80.90;;;;;;4987833;28;20022;-75
2022/02/21 06:47:01;;;;;;;8.38;1.83;;;10.60;81.10;;;;;;5005079;28;20061;-76
2022/02/21 06:49:26;;;;;;;10.07;1.70;;;10.60;81.30;;;;;;5000983;28;20026;-75
2022/02/21 06:51:52;;;;;;;11.15;2.00;;;10.50;81.30;;;;;;5034681;22;20018;-78
2022/02/21 06:54:21;;;;;;;13.90;1.58;;;10.60;81.60;;;;;;5013310;28;20034;-77
2022/02/21 06:56:47;;;;;;;11.57;1.60;;;10.50;80.90;;;;;;5028642;28;20033;-77
2022/02/21 06:59:12;;;;;;;13.13;2.75;;;10.50;80.70;;;;;;5010479;28;20022;-75
2022/02/21 07:01:38;;;;;;;9.65;2.03;;;10.50;80.30;;;;;;5024918;28;20033;-77
2022/02/21 07:04:03;;;;;;;9.90;1.85;;;10.50;80.30;;;;;;5029747;28;20025;-77
2022/02/21 07:06:29;;;;;;;9.15;1.77;;;10.40;79.90;;;;;;5022866;28;20056;-76
2022/02/21 07:08:55;;;;;;;7.93;1.70;;;10.40;79.90;;;;;;5018964;28;20115;-78
2022/02/21 07:11:21;;;;;;;6.40;1.63;;;10.40;80.10;;;;;;5011671;28;20033;-78
2022/02/21 07:13:46;;;;;;;10.48;1.77;;;10.40;79.80;;;;;;5012012;28;20053;-76
2022/02/21 07:16:12;;;;;;;9.20;1.67;;;10.40;79.80;;;;;;5021833;28;20030;-77
2022/02/21 07:18:37;;;;;;;10.13;1.90;;;10.40;79.80;;;;;;5017904;28;20044;-77
2022/02/21 07:21:06;;;;;;;7.82;1.83;;;10.40;79.90;;;;;;5014863;28;20051;-76
2022/02/21 07:23:32;;;;;;;9.93;1.83;;;10.40;79.80;;;;;;5015942;28;20026;-77
2022/02/21 07:25:57;;;;;;;12.80;2.13;;;10.50;79.80;;;;;;5013607;28;20025;-77
2022/02/21 07:28:23;;;;;;;15.63;2.47;;;10.40;80.10;;;;;;5016345;28;20033;-78
2022/02/21 07:30:48;;;;;;;12.38;2.28;;;10.40;80.00;;;;;;5015069;28;20026;-78
2022/02/21 07:33:14;;;;;;;11.95;2.08;;;10.40;79.90;;;;;;5015201;28;20026;-78
2022/02/21 07:35:40;;;;;;;10.65;1.92;;;10.40;79.80;;;;;;5015190;28;20025;-78
2022/02/21 07:38:05;;;;;;;9.70;2.00;;;10.40;79.70;;;;;;5014451;28;20549;-77
2022/02/21 07:40:31;;;;;;;7.22;1.70;;;10.40;79.70;;;;;;5014968;28;20022;-77
2022/02/21 07:42:56;;;;;;;9.65;1.95;;;10.40;79.70;;;;;;5014878;28;20057;-77
2022/02/21 07:45:24;;;;;;;8.35;1.98;;;10.40;79.80;;;;;;5016247;28;20025;-76
2022/02/21 07:47:52;;;;;;;7.53;2.05;;;10.40;79.90;;;;;;5016051;28;20026;-78
2022/02/21 07:50:19;;;;;;;9.70;1.95;;;10.40;79.90;;;;;;5014659;28;20108;-79
2022/02/21 07:52:45;;;;;;;9.60;1.80;;;10.40;79.90;;;;;;5015932;28;20040;-78
2022/02/21 07:55:11;;;;;;;10.00;1.92;;;10.40;79.90;;;;;;5014867;28;20049;-78
2022/02/21 07:57:41;;;;;;;10.23;2.13;;;10.40;79.90;;;;;;5015524;28;20022;-78
2022/02/21 08:00:09;;;;;;;8.32;1.92;;;10.40;80.00;;;;;;5014304;28;20018;-77
2022/02/21 08:02:35;;;;;;;8.77;1.98;;;10.40;79.90;;;;;;5014476;28;20133;-78
2022/02/21 08:05:00;;;;;;;7.40;1.60;;;10.40;79.70;;;;;;5014433;28;20492;-77
2022/02/21 08:07:26;;;;;;;6.10;2.00;;;10.40;79.80;;;;;;5014363;28;20018;-77
2022/02/21 08:09:51;;;;;;;7.32;1.77;;;10.40;79.80;;;;;;5014220;28;20492;-77
2022/02/21 08:12:17;;;;;;;9.73;2.20;;;10.40;79.90;;;;;;5015282;28;20487;-77
2022/02/21 08:14:42;;;;;;;10.68;1.98;;;10.40;80.20;;;;;;5014680;28;20026;-78
2022/02/21 08:17:08;;;;;;;9.05;2.40;;;10.40;80.10;;;;;;5015427;28;20559;-77
2022/02/21 08:19:33;;;;;;;8.18;1.80;;;10.40;80.00;;;;;;5014143;28;20256;-78
2022/02/21 08:21:59;;;;;;;8.85;2.33;;;10.40;80.10;;;;;;5014033;28;20022;-78
2022/02/21 08:24:25;;;;;;;7.20;1.85;;;10.40;80.00;;;;;;5015420;28;20041;-78
2022/02/21 08:26:50;;;;;;;6.72;1.70;;;10.40;80.00;;;;;;5015047;28;20030;-79
2022/02/21 08:29:16;;;;;;;9.10;2.15;;;10.40;80.20;;;;;;5015086;28;20022;-77
2022/02/21 08:31:44;;;;;;;9.85;2.38;;;10.40;80.10;;;;;;5013092;28;20033;-77
2022/02/21 08:34:10;;;;;;;10.05;2.35;;;10.40;80.00;;;;;;5014526;28;20022;-77
2022/02/21 08:36:35;;;;;;;9.40;2.35;;;10.40;80.00;;;;;;5013847;28;20109;-78
2022/02/21 08:39:01;;;;;;;9.40;2.40;;;10.40;80.00;;;;;;5013906;28;20025;-77
2022/02/21 08:41:26;;;;;;;7.75;2.45;;;10.30;79.90;;;;;;5013507;28;20025;-78
2022/02/21 08:43:52;;;;;;;12.13;3.00;;;10.40;79.80;;;;;;5015090;28;20509;-78
2022/02/21 08:46:17;;;;;;;10.32;3.08;;;10.30;79.70;;;;;;5013434;28;20053;-78
2022/02/21 08:48:43;;;;;;;10.75;2.60;;;10.40;79.70;;;;;;5013489;28;20183;-77
2022/02/21 08:51:09;;;;;;;8.55;2.42;;;10.40;79.50;;;;;;5014668;28;20403;-77
2022/02/21 08:53:35;;;;;;;8.43;2.60;;;10.40;79.60;;;;;;5014442;28;20040;-77
2022/02/21 08:56:00;;;;;;;8.45;2.70;;;10.40;79.60;;;;;;5013393;28;20064;-78
2022/02/21 08:58:27;;;;;;;9.65;2.72;;;10.40;79.60;;;;;;5014401;28;20018;-78
2022/02/21 09:00:52;;;;;;;8.68;3.20;;;10.30;79.60;;;;;;5014203;28;20476;-79
2022/02/21 09:03:18;;;;;;;14.25;3.90;;;10.40;79.70;;;;;;5013220;28;20033;-77
2022/02/21 09:05:44;;;;;;;10.43;3.22;;;10.30;79.70;;;;;;5014428;28;20026;-77
2022/02/21 09:08:09;;;;;;;11.45;3.22;;;10.30;80.20;;;;;;5013136;28;20073;-77
2022/02/21 09:10:35;;;;;;;10.85;3.33;;;10.30;79.60;;;;;;5013016;28;20506;-78
2022/02/21 09:13:02;;;;;;;11.20;3.53;;;10.30;79.60;;;;;;5012933;28;20062;-77
2022/02/21 09:15:27;;;;;;;8.50;3.03;;;10.40;79.70;;;;;;5013097;28;20022;-78
2022/02/21 09:17:53;;;;;;;12.38;4.00;;;10.30;79.70;;;;;;5013018;28;20570;-77
2022/02/21 09:20:19;;;;;;;12.15;4.10;;;10.30;79.60;;;;;;5013873;28;20018;-77
2022/02/21 09:22:45;;;;;;;11.98;4.18;;;10.30;79.60;;;;;;5014051;28;20022;-77
2022/02/21 09:25:11;;;;;;;13.48;5.05;;;10.30;79.50;;;;;;5013747;28;20022;-78
2022/02/21 09:27:37;;;;;;;12.38;4.78;;;10.40;79.40;;;;;;5014068;28;20037;-77
2022/02/21 09:30:07;;;;;;;12.70;4.13;;;10.40;79.40;;;;;;5013617;28;20026;-78
2022/02/21 09:32:32;;;;;;;12.40;4.32;;;10.40;79.50;;;;;;5012759;28;20080;-77
2022/02/21 09:34:58;;;;;;;12.13;3.95;;;10.40;79.50;;;;;;5012807;28;20030;-78
2022/02/21 09:37:25;;;;;;;14.48;4.07;;;10.40;79.50;;;;;;5011960;28;20092;-78
2022/02/21 09:39:51;;;;;;;12.75;4.03;;;10.30;79.40;;;;;;5012345;28;20487;-78
2022/02/21 09:42:17;;;;;;;12.27;3.95;;;10.40;79.50;;;;;;5013908;28;20028;-78
2022/02/21 09:44:43;;;;;;;11.00;3.70;;;10.30;79.40;;;;;;5012339;28;20045;-77
2022/02/21 09:47:10;;;;;;;12.45;4.38;;;10.30;79.50;;;;;;5012383;28;20168;-78
2022/02/21 09:49:36;;;;;;;14.77;4.88;;;10.40;79.40;;;;;;5013478;28;20022;-80
2022/02/21 09:52:01;;;;;;;11.95;4.60;;;10.30;79.30;;;;;;5013223;28;20096;-77
2022/02/21 09:54:27;;;;;;;14.20;4.90;;;10.40;79.20;;;;;;5012477;28;20034;-77
2022/02/21 09:56:55;;;;;;;14.63;5.95;;;10.30;79.10;;;;;;5012117;28;20076;-78
2022/02/21 09:59:21;;;;;;;15.68;6.22;;;10.40;79.10;;;;;;5011864;28;20029;-78
2022/02/21 10:01:46;;;;;;;13.98;5.60;;;10.30;78.90;;;;;;5013896;28;20520;-78
2022/02/21 10:04:20;;;;;;;16.45;5.97;;;10.40;79.10;;;;;;5012131;28;20033;-78
2022/02/21 10:06:50;;;;;;;13.50;5.60;;;10.30;79.10;;;;;;5012169;28;20125;-77
2022/02/21 10:09:16;;;;;;;17.15;6.70;;;10.30;78.90;;;;;;5013155;28;20406;-77
2022/02/21 10:11:44;;;;;;;14.45;5.82;;;10.30;79.10;;;;;;5011917;28;20026;-77
2022/02/21 10:14:13;;;;;;;15.70;6.03;;;10.30;79.70;;;;;;5013272;28;20376;-78
2022/02/21 10:17:03;;;;;;;13.68;5.85;;;10.30;79.20;;;;;;5012038;28;20492;-77
2022/02/21 10:19:38;;;;;;;14.45;5.90;;;10.30;79.20;;;;;;5004717;28;20047;-77
2022/02/21 10:22:10;;;;;;;14.48;5.80;;;10.30;79.20;;;;;;5012760;28;20025;-78
2022/02/21 10:24:49;;;;;;;18.45;7.18;;;10.30;79.20;;;;;;5011518;28;20109;-78
2022/02/21 10:27:17;;;;;;;15.85;6.65;;;10.30;79.10;;;;;;5015554;28;20033;-78
2022/02/21 10:30:00;;;;;;;15.65;6.85;;;10.40;79.20;;;;;;5012743;28;20307;-77
2022/02/21 10:32:34;;;;;;;17.33;7.35;;;10.30;79.00;;;;;;5014126;28;20383;-78
2022/02/21 10:35:12;;;;;;;18.40;7.32;;;10.40;79.10;;;;;;5014127;28;20037;-78
2022/02/21 10:37:49;;;;;;;17.58;8.32;;;10.30;79.00;;;;;;5013885;28;20036;-79
2022/02/21 10:40:18;;;;;;;19.08;8.75;;;10.30;78.90;;;;;;5013610;28;20050;-79
2022/02/21 10:42:46;;;;;;;18.80;8.80;;;10.30;79.00;;;;;;5015313;28;20064;-79
2022/02/21 10:45:17;;;;;;;18.00;8.35;;;10.30;79.00;;;;;;5013882;28;20030;-78
2022/02/21 10:48:05;;;;;;;18.80;8.27;;;10.30;79.00;;;;;;5013990;28;20030;-78
2022/02/21 10:50:36;;;;;;;19.90;9.43;;;10.30;79.00;;;;;;5012788;28;20041;-77
2022/02/21 10:53:12;;;;;;;20.77;9.20;;;10.30;78.90;;;;;;5011562;28;20091;-77
2022/02/21 10:55:40;;;;;;;22.33;9.75;;;10.30;79.00;;;;;;5012495;28;20265;-78
2022/02/21 10:58:20;;;;;;;18.90;9.05;;;10.30;79.20;;;;;;5016618;28;20018;-78
2022/02/21 11:00:49;;;;;;;18.00;9.18;;;10.30;79.30;;;;;;5015155;28;20022;-78
2022/02/21 11:03:22;;;;;;;16.33;8.88;;;10.30;79.30;;;;;;5015319;28;20544;-76
2022/02/21 11:05:48;;;;;;;20.77;9.90;;;10.30;79.50;;;;;;5016436;28;20033;-79
2022/02/21 11:08:15;;;;;;;20.25;10.05;;;10.30;79.20;;;;;;5014923;28;20026;-77
2022/02/21 11:10:44;;;;;;;19.65;10.10;;;10.30;79.30;;;;;;5014751;28;20026;-78
2022/02/21 11:13:13;;;;;;;20.90;10.38;;;10.30;79.30;;;;;;5014960;28;20022;-77
2022/02/21 11:15:42;;;;;;;19.75;10.07;;;10.30;79.20;;;;;;5014942;28;20526;-77
2022/02/21 11:18:12;;;;;;;20.15;10.73;;;10.30;79.10;;;;;;5014750;28;20105;-78
2022/02/21 11:20:38;;;;;;;20.65;10.25;;;10.30;79.20;;;;;;5018017;28;20045;-78
2022/02/21 11:23:05;;;;;;;21.10;10.90;;;10.30;79.20;;;;;;5018773;28;20022;-77
2022/02/21 11:25:40;;;;;;;19.13;9.85;;;10.30;79.10;;;;;;5017390;28;20026;-79
2022/02/21 11:28:22;;;;;;;17.95;9.38;;;10.20;79.20;;;;;;5017132;28;20032;-78
2022/02/21 11:30:49;;;;;;;17.92;9.77;;;10.30;79.10;;;;;;5015667;28;20021;-77
2022/02/21 11:33:15;;;;;;;19.55;10.02;;;10.30;78.90;;;;;;5014605;28;20022;-77
2022/02/21 11:36:08;;;;;;;18.40;8.90;;;10.30;79.10;;;;;;5014531;28;20045;-77
2022/02/21 11:38:35;;;;;;;17.88;8.77;;;10.30;79.20;;;;;;5015555;28;20088;-77
2022/02/21 11:41:12;;;;;;;18.73;8.75;;;10.30;79.20;;;;;;5015849;28;20117;-77
2022/02/21 11:43:41;;;;;;;18.48;8.27;;;10.30;79.20;;;;;;5015887;28;20028;-76
2022/02/21 11:46:08;;;;;;;23.35;9.85;;;10.20;78.80;;;;;;5017181;28;20034;-77
2022/02/21 11:48:54;;;;;;;28.10;12.45;;;10.20;79.10;;;;;;5014296;28;20558;-79
2022/02/21 11:51:32;;;;;;;34.17;12.07;;;10.30;79.10;;;;;;5015713;28;20543;-76
2022/02/21 11:54:10;;;;;;;40.15;17.30;;;10.30;78.60;;;;;;5013868;28;20065;-77
2022/02/21 11:56:50;;;;;;;44.55;19.75;;;10.30;78.50;;;;;;5015616;28;20033;-76
2022/02/21 11:59:22;;;;;;;41.85;21.63;;;10.30;78.30;;;;;;5014060;28;20124;-77
2022/02/21 12:02:07;;;;;;;48.72;25.17;;;10.30;78.50;;;;;;5014410;28;20029;-78
2022/02/21 12:04:53;;;;;;;52.95;26.85;;;10.30;78.30;;;;;;5015401;28;20030;-77
2022/02/21 12:07:39;;;;;;;51.70;26.85;;;10.30;78.20;;;;;;5014128;28;20113;-77
2022/02/21 12:10:10;;;;;;;51.22;28.95;;;10.30;78.20;;;;;;5015215;28;20046;-77
2022/02/21 12:12:53;;;;;;;54.20;27.88;;;10.30;78.20;;;;;;5017075;28;20491;-79
2022/02/21 12:15:20;;;;;;;51.28;27.90;;;10.30;78.00;;;;;;5018042;28;20495;-79
2022/02/21 12:17:46;;;;;;;47.90;27.13;;;10.30;78.00;;;;;;5016321;28;20030;-77
2022/02/21 12:20:32;;;;;;;46.00;25.88;;;10.30;78.10;;;;;;5013752;28;20101;-80
2022/02/21 12:23:21;;;;;;;46.35;26.10;;;10.30;78.20;;;;;;5013761;28;20163;-77
2022/02/21 12:25:56;;;;;;;43.85;25.67;;;10.30;78.30;;;;;;4989957;28;20046;-77
2022/02/21 12:28:23;;;;;;;40.45;23.60;;;10.30;78.20;;;;;;4995302;28;20034;-77
2022/02/21 12:30:59;;;;;;;36.97;22.48;;;10.30;78.10;;;;;;4995149;28;20025;-78
2022/02/21 12:33:33;;;;;;;38.22;22.55;;;10.30;78.10;;;;;;4995366;28;20026;-78
2022/02/21 12:36:04;;;;;;;37.22;20.95;;;10.30;78.10;;;;;;4995817;28;20105;-78
2022/02/21 12:38:35;;;;;;;33.97;19.80;;;10.30;78.20;;;;;;4995283;28;20050;-78